Tiempo atmosférico en la estación meteorológica de Los Arcos, Navarra (470 m.)



Fecha
DESCASC
Temp. máxima en grados centígrados (hora)
DESCASC
Temp. mínima en grados centígrados (hora)
DESCASC
Temp. media en grados centígrados
DESCASC
Racha de viento máxima en m/sg (hora)
DESCASC
Velocidad máxima media en intervalos de 10 minutos(hora)
DESCASC
Precipitaciones diarias en mm
DESCASC
Precipitaciones de 00:00 a 06:00 en mm
DESCASC
Precipitaciones de 06:00 a 12:00 en mm
DESCASC
Precipitaciones de 12:00 a 18:00 en mm
DESCASC
Precipitaciones de 18:00 a 24:00 en mm
DESCASC
25-04-2019 16.2 (17:10) 5 (07:30) 10.6 14.72 (18:30) 6.11 (18:30) 3.2 2.4 0.2 0 0.6
24-04-2019 13.2 (16:30) 3.8 (07:40) 8.5 18.33 (19:00) 11.67 (18:50) 9.6 0 0 0 9.6
23-04-2019 15.8 (12:30) 7 (23:50) 11.4 9.17 (13:50) 5.83 (13:40) 2 0 0 0.4 1.6
22-04-2019 19.9 (14:20) 7 (00:00) 13.4 11.39 (15:50) 7.22 (15:50) 0 0 0 0 0
21-04-2019 14.8 (18:00) 8.8 (00:00) 11.8 7.5 (00:50) 3.89 (00:40) 0 0 0 0 0
20-04-2019 22.2 (17:30) 7.7 (00:00) 15 9.72 (23:00) 5.56 (21:40) 5.8 0 0 0 5.8
19-04-2019 20.2 (17:30) 9.4 (00:00) 14.8 13.61 (14:40) 8.89 (14:00) 11 7.2 3.6 0.2 0
18-04-2019 17.2 (17:00) 10.2 (00:00) 13.7 -- (--) -- (--) 0.4 0 0.4 0 0
17-04-2019 18.9 (17:00) 8.7 (00:00) 13.8 12.5 (18:40) 8.89 (18:40) 0 0 0 0 0
16-04-2019 19.2 (17:20) 5.9 (00:00) 12.6 7.78 (17:40) 5 (17:40) 0.2 0.2 0 0 0
15-04-2019 21.2 (15:30) 8.9 (00:00) 15.1 12.78 (15:00) 8.33 (14:40) 10.6 0 0 0.2 10.4
14-04-2019 25.4 (16:00) 8.2 (00:00) 16.8 9.17 (14:00) 5 (13:00) 0 0 0 0 0
13-04-2019 23.3 (17:20) 0.8 (00:00) 12 6.67 (14:00) 4.72 (05:50) 0 0 0 0 0
12-04-2019 17.8 (16:20) 5.8 (00:00) 11.8 8.33 (14:00) 5 (14:00) 0 0 0 0 0
11-04-2019 12.7 (16:00) 5.4 (00:00) 9 9.72 (16:00) 4.44 (11:40) 0 0 0 0 0
10-04-2019 16.7 (17:00) 4 (00:00) 10.4 10 (18:50) 6.11 (18:50) 0 0 0 0 0
09-04-2019 17.6 (16:30) 3.5 (00:00) 10.6 9.72 (17:00) 5.28 (17:10) 1.2 0 0 0 1.2
08-04-2019 15.8 (15:40) 6.1 (00:00) 11 6.67 (16:00) 3.61 (15:50) 3 0.6 1.4 0 1
07-04-2019 14.8 (18:40) 3.7 (00:00) 9.3 9.17 (15:40) 4.72 (11:10) 1.4 1.4 0 0 0
06-04-2019 12.7 (13:50) 2.9 (00:00) 7.8 11.11 (20:10) 5.56 (14:20) 3.4 0 0 0 3.4
05-04-2019 11.5 (17:00) 4 (00:00) 7.8 11.39 (15:40) 7.22 (15:40) 2 0 0 0 2
04-04-2019 14.6 (17:00) 1.1 (00:00) 7.9 9.17 (14:20) 4.44 (03:00) 0 0 0 0 0
03-04-2019 12.1 (15:10) 2.7 (00:00) 7.4 12.78 (14:00) 7.22 (14:00) 0.6 0 0.4 0.2 0
02-04-2019 19.6 (17:30) 4.6 (00:00) 12.1 8.61 (20:30) 4.44 (20:30) 0 0 0 0 0
01-04-2019 14.4 (18:50) 7.3 (00:00) 10.8 7.22 (14:20) 5 (14:20) 1.8 1.8 0 0 0
31-03-2019 16.6 (16:30) 4.3 (00:00) 10.5 8.06 (17:10) 5.28 (17:20) 0 0 0 0 0
30-03-2019 19 (17:00) 4.6 (00:00) 11.8 10 (14:40) 5.28 (15:40) 0 0 0 0 0
29-03-2019 19.5 (16:00) 2.3 (00:00) 10.9 10.28 (14:30) 6.67 (17:10) 0 0 0 0 0
28-03-2019 20.1 (16:00) 3.3 (00:00) 11.7 8.33 (00:10) 4.72 (00:10) 0 0 0 0 0
27-03-2019 19.4 (15:00) 1.8 (00:00) 10.6 10 (17:40) 5.56 (17:50) 0 0 0 0 0

Gráficas

Temp. máximas Temp. mínimas Temp. medias Precipitaciones Rachas de viento máximas Velocidades máximas media en intervalos de 10 minutos

Datos horarios

Fecha y hora oficial Temperatura (ºC) Velocidad del viento (km/h) Dirección del viento Racha (km/h) Dirección de racha Precipitación (mm) Presión (hPa) Tendencia (hPa) Humedad (%)
2019-04-25 23:00:00 9.5 6 Oeste 33 Noroeste 0 -- -- 63
2019-04-25 22:00:00 10.4 14 Oeste 28 Noroeste 0 -- -- 58
2019-04-25 21:00:00 10.1 5 Noroeste 18 Oeste 0.2 -- -- 66
2019-04-25 20:00:00 12.5 10 Oeste 22 Sudoeste 0 -- -- 53
2019-04-25 19:00:00 12.4 8 Oeste 53 Oeste 0.4 -- -- 65
2019-04-25 18:00:00 15.9 13 Oeste 35 Sudoeste 0 -- -- 42
2019-04-25 17:00:00 15.5 13 Oeste 39 Oeste 0 -- -- 44
2019-04-25 16:00:00 15.2 16 Oeste 34 Oeste 0 -- -- 43
2019-04-25 15:00:00 15.4 18 Oeste 39 Oeste 0 -- -- 46
2019-04-25 14:00:00 14.7 13 Oeste 29 Oeste 0 -- -- 46
2019-04-25 13:00:00 13.8 17 Oeste 40 Oeste 0 -- -- 47
2019-04-25 12:00:00 13.9 14 Sudoeste 34 Oeste 0.2 -- -- 51
2019-04-25 11:00:00 12.8 8 Sudoeste 22 Sudoeste 0 -- -- 64
2019-04-25 10:00:00 10.5 6 Sudeste 10 Sudeste 0 -- -- 71
2019-04-25 09:00:00 8.5 4 Sudeste 10 Norte 0 -- -- 83
2019-04-25 08:00:00 5.4 9 Norte 10 Norte 0 -- -- 91
2019-04-25 07:00:00 5.5 2 Este 18 Noroeste 0 -- -- 87
2019-04-25 06:00:00 7.3 10 Noroeste 26 Oeste 0 -- -- 81
2019-04-25 05:00:00 8 10 Oeste 31 Oeste 0 -- -- 84
2019-04-25 04:00:00 8.4 6 Oeste 10 Noroeste 0.4 -- -- 92
2019-04-25 03:00:00 8.9 5 Sur 19 Sudoeste 1 -- -- 95
2019-04-25 02:00:00 8.8 3 Sudoeste 19 Sudeste 0.8 -- -- 95
2019-04-25 01:00:00 8.6 9 Este 23 Este 0.2 -- -- 95
2019-04-25 00:00:00 8.9 12 Este 19 Nordeste 0 -- -- 94
2019-04-24 23:00:00 8.9 10 Este 19 Este 0 -- -- 96
2019-04-24 22:00:00 9.3 14 Este 21 Este 2 -- -- 96
2019-04-24 21:00:00 9.3 5 Nordeste 42 Este 6.4 -- -- 95
2019-04-24 20:00:00 9.3 23 Sudeste 61 Sudeste 0.4 -- -- 92
2019-04-24 19:00:00 9.5 41 Sudeste 66 Sudeste 0.8 -- -- 89
2019-04-24 18:00:00 11.4 39 Sudeste 56 Sudeste 0 -- -- 69
2019-04-24 17:00:00 12.2 28 Sudeste 50 Sudeste 0 -- -- 68
2019-04-24 16:00:00 12.7 27 Sudeste 48 Sudeste 0 -- -- 64
2019-04-24 15:00:00 11.5 26 Sudeste 48 Sudeste 0 -- -- 67
2019-04-24 14:00:00 10.8 26 Sudeste 44 Sudeste 0 -- -- 66
2019-04-24 13:00:00 9.9 28 Sudeste 47 Sudeste 0 -- -- 69
2019-04-24 12:00:00 9.4 22 Sudeste 33 Sudeste 0 -- -- 73
2019-04-24 11:00:00 8.4 19 Sudeste 32 Sudeste 0 -- -- 76
2019-04-24 10:00:00 7.9 12 Sudeste 20 Sudeste 0 -- -- 85
2019-04-24 09:00:00 7.2 0 Calma 10 Este 0 -- -- 82
2019-04-24 08:00:00 4.7 0 Calma 12 Noroeste 0 -- -- 91
2019-04-24 07:00:00 4.6 5 Este 8 Este 0 -- -- 86
2019-04-24 06:00:00 5.3 4 Este 8 Oeste 0 -- -- 83
2019-04-24 05:00:00 5.9 0 Calma 15 Oeste 0 -- -- 81
2019-04-24 04:00:00 6.4 3 Sur 14 Oeste 0 -- -- 86
2019-04-24 03:00:00 6.9 4 Oeste 9 Oeste 0 -- -- 86
2019-04-24 02:00:00 6.6 3 Noroeste 6 Norte 0 -- -- 90
2019-04-24 01:00:00 6.8 4 Noroeste 11 Noroeste 0 -- -- 89
2019-04-24 00:00:00 7 9 Noroeste 17 Noroeste 0 -- -- 86
2019-04-23 23:00:00 8.2 10 Noroeste 30 Oeste 0 -- -- 83
2019-04-23 22:00:00 8.1 0 Calma 12 Noroeste 0 -- -- 93
2019-04-23 21:00:00 8.9 7 Noroeste 12 Noroeste 0 -- -- 90
2019-04-23 20:00:00 9.3 9 Norte 19 Noroeste 1.2 -- -- 88
2019-04-23 19:00:00 11 7 Oeste 20 Noroeste 0.4 -- -- 83
2019-04-23 18:00:00 12.3 7 Oeste 13 Noroeste 0 -- -- 76
2019-04-23 17:00:00 12.3 11 Noroeste 27 Oeste 0 -- -- 80
2019-04-23 16:00:00 14 12 Oeste 25 Sudoeste 0 -- -- 76
2019-04-23 15:00:00 14.9 13 Sudeste 26 Sudeste 0.4 -- -- 73
2019-04-23 14:00:00 15.4 12 Sudeste 33 Sudeste 0 -- -- 68
2019-04-23 13:00:00 14.8 17 Sudeste 33 Sudeste 0 -- -- 74
2019-04-23 12:00:00 15.1 16 Sudeste 27 Sudeste 0 -- -- 70
2019-04-23 11:00:00 13.3 13 Este 26 Este 0 -- -- 77
2019-04-23 10:00:00 12.3 13 Este 19 Este 0 -- -- 81
2019-04-23 09:00:00 10.4 9 Este 20 Este 0 -- -- 86
2019-04-23 08:00:00 10 9 Este 18 Este 0 -- -- 86
2019-04-23 07:00:00 9.9 8 Este 21 Este 0 -- -- 85
2019-04-23 06:00:00 9.9 8 Nordeste 16 Este 0 -- -- 85
2019-04-23 05:00:00 10.4 11 Este 21 Este 0 -- -- 82
2019-04-23 04:00:00 10.8 15 Este 27 Este 0 -- -- 81
2019-04-23 03:00:00 11.6 14 Este 27 Este 0 -- -- 77
2019-04-23 02:00:00 12.4 15 Este 22 Este 0 -- -- 73
2019-04-23 01:00:00 12.7 12 Este 23 Este 0 -- -- 72
2019-04-23 00:00:00 12.9 13 Este 24 Este 0 -- -- 69
2019-04-22 23:00:00 12.7 15 Este 24 Este 0 -- -- 69
2019-04-22 22:00:00 14 13 Este 23 Este 0 -- -- 64
2019-04-22 21:00:00 15.1 12 Este 28 Sudeste 0 -- -- 58
2019-04-22 20:00:00 16.5 16 Sudeste 26 Este 0 -- -- 54
2019-04-22 19:00:00 17.8 17 Sudeste 28 Sudeste 0 -- -- 51
2019-04-22 18:00:00 18.9 17 Sudeste 32 Sudeste 0 -- -- 49
2019-04-22 17:00:00 18.4 21 Sudeste 38 Sudeste 0 -- -- 49
2019-04-22 16:00:00 17.6 24 Sudeste 41 Sudeste 0 -- -- 51
2019-04-22 15:00:00 19.4 21 Sudeste 35 Sudeste 0 -- -- 50
2019-04-22 14:00:00 19.4 9 Sudeste 20 Sudeste 0 -- -- 49
2019-04-22 13:00:00 18.1 6 Sur 13 Sudeste 0 -- -- 57
2019-04-22 12:00:00 16.7 5 Sur 10 Sudeste 0 -- -- 56
2019-04-22 11:00:00 15 4 Sudeste 10 Sudeste 0 -- -- 65
2019-04-22 10:00:00 11.9 2 Sudeste 6 Sudeste 0 -- -- 78
2019-04-22 09:00:00 9.8 4 Norte 8 Noroeste 0 -- -- 87
2019-04-22 08:00:00 7.1 7 Norte 10 Norte 0 -- -- 93
2019-04-22 07:00:00 7.6 8 Noroeste 9 Noroeste 0 -- -- 90
2019-04-22 06:00:00 8.8 7 Noroeste 13 Norte 0 -- -- 88
2019-04-22 05:00:00 8.8 6 Norte 10 Noroeste 0 -- -- 89
2019-04-22 04:00:00 8.9 2 Noroeste 9 Norte 0 -- -- 87
2019-04-22 03:00:00 9.5 8 Noroeste 13 Noroeste 0 -- -- 86
2019-04-22 02:00:00 10.3 6 Noroeste 9 Noroeste 0 -- -- 82
2019-04-22 01:00:00 10.6 3 Noroeste 9 Norte 0 -- -- 79
2019-04-22 00:00:00 10.6 2 Noroeste 7 Norte 0 -- -- 80
2019-04-21 23:00:00 10.6 4 Nordeste 6 Norte 0 -- -- 84
2019-04-21 22:00:00 11.2 3 Oeste 5 Noroeste 0 -- -- 80
2019-04-21 21:00:00 12.6 2 Noroeste 6 Sudoeste 0 -- -- 75
2019-04-21 20:00:00 13.6 3 Sudoeste 6 Sudoeste 0 -- -- 70
2019-04-21 19:00:00 14.3 0 Calma 9 Norte 0 -- -- 58
2019-04-21 18:00:00 14.8 3 Norte 10 Norte 0 -- -- 59
2019-04-21 17:00:00 14.4 3 Norte 8 Nordeste 0 -- -- 61
2019-04-21 16:00:00 14.2 3 Nordeste 8 Norte 0 -- -- 58
2019-04-21 15:00:00 14.3 3 Sudeste 9 Oeste 0 -- -- 65
2019-04-21 14:00:00 13.4 3 Sudoeste 9 Sudoeste 0 -- -- 71
2019-04-21 13:00:00 12.7 5 Sudoeste 11 Sudoeste 0 -- -- 69
2019-04-21 12:00:00 11.5 6 Oeste 9 Oeste 0 -- -- 80
2019-04-21 11:00:00 10.2 4 Noroeste 10 Noroeste 0 -- -- 86
2019-04-21 10:00:00 9.8 6 Noroeste 9 Noroeste 0 -- -- 88
2019-04-21 09:00:00 9.4 2 Norte 6 Nordeste 0 -- -- 87
2019-04-21 08:00:00 9 4 Noroeste 10 Nordeste 0 -- -- 89
2019-04-21 07:00:00 8.8 6 Nordeste 13 Este 0 -- -- 88
2019-04-21 06:00:00 9.2 9 Este 19 Este 0 -- -- 85
2019-04-21 05:00:00 8.9 10 Este 15 Este 0 -- -- 86
2019-04-21 04:00:00 8.9 10 Este 15 Este 0 -- -- 85
2019-04-21 03:00:00 9.5 8 Nordeste 22 Nordeste 0 -- -- 84
2019-04-21 02:00:00 9.9 12 Este 21 Este 0 -- -- 85
2019-04-21 01:00:00 10.1 14 Este 27 Este 0 -- -- 84
2019-04-21 00:00:00 10.2 12 Este 32 Este 0.4 -- -- 87
2019-04-20 23:00:00 11.9 17 Este 35 Este 5.4 -- -- 85
2019-04-20 22:00:00 15.1 19 Este 32 Este 0 -- -- 72
2019-04-20 21:00:00 16.9 13 Este 26 Este 0 -- -- 62
2019-04-20 20:00:00 20.4 0 Calma 11 Sudeste 0 -- -- 37
2019-04-20 19:00:00 21.9 5 Sur 13 Sudeste 0 -- -- 35
2019-04-20 18:00:00 21.9 6 Sudeste 22 Este 0 -- -- 40
2019-04-20 17:00:00 22 3 Nordeste 18 Sudeste 0 -- -- 40
2019-04-20 16:00:00 21.6 11 Sudeste 21 Este 0 -- -- 41
2019-04-20 15:00:00 21.7 10 Sudeste 19 Sudeste 0 -- -- 40
2019-04-20 14:00:00 21 8 Sudeste 17 Sudeste 0 -- -- 43
2019-04-20 13:00:00 20.3 8 Sudeste 18 Sudeste 0 -- -- 43
2019-04-20 12:00:00 19.3 3 Sur 9 Sudeste 0 -- -- 41
2019-04-20 11:00:00 16.9 3 Sur 7 Oeste 0 -- -- 55
2019-04-20 10:00:00 14.1 3 Sudoeste 10 Noroeste 0 -- -- 66
2019-04-20 09:00:00 10.9 8 Noroeste 12 Noroeste 0 -- -- 71
2019-04-20 08:00:00 7.8 5 Noroeste 10 Noroeste 0 -- -- 80
2019-04-20 07:00:00 8.2 4 Norte 14 Norte 0 -- -- 73
2019-04-20 06:00:00 8.9 10 Norte 14 Norte 0 -- -- 72
2019-04-20 05:00:00 9.2 5 Noroeste 10 Norte 0 -- -- 69
2019-04-20 04:00:00 10.3 2 Noroeste 11 Nordeste 0 -- -- 64
2019-04-20 03:00:00 10.8 10 Norte 12 Norte 0 -- -- 66
2019-04-20 02:00:00 13.1 5 Norte 15 Nordeste 0 -- -- 60
2019-04-20 01:00:00 14 10 Nordeste 19 Este 0 -- -- 57
2019-04-20 00:00:00 14.5 10 Este 21 Este 0 -- -- 56
2019-04-19 23:00:00 15.2 11 Este 17 Este 0 -- -- 55
2019-04-19 22:00:00 15.1 9 Nordeste 13 Nordeste 0 -- -- 60
2019-04-19 21:00:00 15.7 8 Este 13 Este 0 -- -- 60
2019-04-19 20:00:00 17.4 3 Este 14 Este 0 -- -- 58
2019-04-19 19:00:00 18.3 12 Sudeste 32 Sudeste 0 -- -- 54
2019-04-19 18:00:00 19.1 18 Sudeste 33 Sudeste 0 -- -- 50
2019-04-19 17:00:00 19.7 19 Este 34 Este 0 -- -- 52
2019-04-19 16:00:00 18 20 Este 39 Este 0 -- -- 56
2019-04-19 15:00:00 17.2 25 Sudeste 49 Sudeste 0 -- -- 56
2019-04-19 14:00:00 16.5 32 Este 46 Este 0.2 -- -- 59
2019-04-19 13:00:00 16 20 Este 30 Este 0 -- -- 63
2019-04-19 12:00:00 14.6 17 Este 28 Sudeste 0 -- -- 69
2019-04-19 11:00:00 12.9 2 Sur 7 Nordeste 0 -- -- 82
2019-04-19 10:00:00 10.8 4 Norte 9 Noroeste 0 -- -- 95
2019-04-19 09:00:00 9.6 2 Nordeste 13 Norte 0 -- -- 94
2019-04-19 08:00:00 9.5 6 Nordeste 17 Este 1.4 -- -- 93
2019-04-19 07:00:00 9.5 9 Este 24 Este 2.2 -- -- 94
2019-04-19 06:00:00 9.8 13 Sudeste 23 Sudeste 1.8 -- -- 93
2019-04-19 05:00:00 10 9 Este 18 Este 1.8 -- -- 93
2019-04-19 04:00:00 10.1 3 Este 10 Sudeste 0.6 -- -- 94
2019-04-19 03:00:00 10.4 6 Este 12 Sudeste 1.4 -- -- 93
2019-04-19 02:00:00 11.3 2 Sur 14 Este 1.6 -- -- 89
2019-04-19 01:00:00 13.2 16 Sudeste 26 Este 0 -- -- 71
2019-04-19 00:00:00 14.2 19 Este 28 Este 0 -- -- 63
2019-04-18 23:00:00 14.5 17 Este 30 Este 0 -- -- 62
2019-04-18 22:00:00 14.6 10 Este 28 Este 0 -- -- 59
2019-04-18 21:00:00 14.8 13 Este 28 Este 0 -- -- 56
2019-04-18 20:00:00 14.6 13 Este 26 Este 0 -- -- 58
2019-04-18 19:00:00 15.3 18 Este 31 Este 0 -- -- 55
2019-04-18 18:00:00 15.9 20 Este 41 Sudeste 0 -- -- 54
2019-04-18 17:00:00 17.2 28 Sudeste 48 Sudeste 0 -- -- 51
2019-04-18 16:00:00 16.9 14 Este 26 Este 0 -- -- 58
2019-04-18 15:00:00 16.8 12 Sudeste 25 Sur 0 -- -- 60
2019-04-18 14:00:00 15 16 Sudeste 36 Este 0 -- -- 64
2019-04-18 13:00:00 14.4 10 Sudeste 21 Este 0 -- -- 76
2019-04-18 12:00:00 11.4 14 Este 25 Este 0.2 -- -- 89
2019-04-18 11:00:00 10.7 12 Este 23 Este 0.2 -- -- 90
2019-04-18 10:00:00 10.5 14 Este 23 Este 0 -- -- 86
2019-04-18 09:00:00 10.4 13 Este 25 Este 0 -- -- 86
2019-04-18 08:00:00 10.3 12 Este 26 Este 0 -- -- 87
2019-04-18 07:00:00 10.4 19 Este 30 Este 0 -- -- 85
2019-04-18 06:00:00 -- -- -- -- -- -- -- -- --
2019-04-18 05:00:00 10.8 14 Este 28 Este 0 -- -- 80
2019-04-18 04:00:00 10.6 13 Este 22 Este 0 -- -- 80
2019-04-18 03:00:00 11 13 Este 22 Este 0 -- -- 77
2019-04-18 02:00:00 11.9 15 Este 25 Este 0 -- -- 74
2019-04-18 01:00:00 12.9 13 Este 28 Este 0 -- -- 75
2019-04-18 00:00:00 14 15 Sudeste 31 Este 0 -- -- 71
2019-04-17 23:00:00 14.4 5 Sudeste 26 Este 0 -- -- 70
2019-04-17 22:00:00 15 18 Este 30 Sudeste 0 -- -- 67
2019-04-17 21:00:00 15.9 16 Este 26 Este 0 -- -- 67
2019-04-17 20:00:00 17.9 18 Sudeste 39 Sudeste 0 -- -- 59
2019-04-17 19:00:00 18.8 24 Sudeste 45 Sudeste 0 -- -- 58
2019-04-17 18:00:00 18.4 19 Sudeste 33 Este 0 -- -- 60
2019-04-17 17:00:00 18.9 21 Sudeste 42 Sudeste 0 -- -- 58
2019-04-17 16:00:00 17.6 24 Sudeste 40 Sudeste 0 -- -- 62
2019-04-17 15:00:00 17.1 24 Sudeste 40 Sudeste 0 -- -- 64
2019-04-17 14:00:00 16.2 23 Sudeste 42 Sudeste 0 -- -- 66
2019-04-17 13:00:00 14.3 24 Sudeste 41 Sudeste 0 -- -- 69
2019-04-17 12:00:00 12.7 22 Sudeste 39 Sudeste 0 -- -- 75
2019-04-17 11:00:00 10.7 18 Sudeste 36 Este 0 -- -- 83
2019-04-17 10:00:00 9.7 19 Este 31 Sudeste 0 -- -- 86
2019-04-17 09:00:00 9.3 16 Este 26 Este 0 -- -- 88
2019-04-17 08:00:00 8.8 14 Este 30 Sudeste 0 -- -- 88
2019-04-17 07:00:00 9.2 20 Sudeste 35 Sudeste 0 -- -- 83
2019-04-17 06:00:00 9.2 17 Este 28 Sudeste 0 -- -- 82
2019-04-17 05:00:00 9.3 15 Este 26 Este 0 -- -- 75
2019-04-17 04:00:00 9.8 16 Este 24 Este 0 -- -- 73
2019-04-17 03:00:00 10.2 12 Este 23 Este 0 -- -- 78
2019-04-17 02:00:00 10.9 14 Este 23 Este 0 -- -- 82
2019-04-17 01:00:00 11.7 12 Este 24 Este 0 -- -- 76
2019-04-17 00:00:00 12.8 12 Este 21 Este 0 -- -- 70
2019-04-16 23:00:00 13.6 12 Este 19 Este 0 -- -- 68
2019-04-16 22:00:00 13.9 12 Este 18 Este 0 -- -- 66
2019-04-16 21:00:00 14.9 11 Este 16 Este 0 -- -- 65
2019-04-16 20:00:00 17.1 10 Este 22 Este 0 -- -- 57
2019-04-16 19:00:00 18.3 15 Este 27 Sudeste 0 -- -- 49
2019-04-16 18:00:00 18.8 18 Este 28 Este 0 -- -- 47
2019-04-16 17:00:00 19 14 Este 22 Este 0 -- -- 50
2019-04-16 16:00:00 19.1 10 Sudeste 21 Este 0 -- -- 53
2019-04-16 15:00:00 18.2 5 Sudeste 16 Este 0 -- -- 49
2019-04-16 14:00:00 17.3 4 Sudeste 12 Sudeste 0 -- -- 53
2019-04-16 13:00:00 16.4 6 Sudeste 13 Sudeste 0 -- -- 55
2019-04-16 12:00:00 15.2 7 Sudoeste 12 Sudoeste 0 -- -- 61
2019-04-16 11:00:00 14.1 5 Nordeste 12 Nordeste 0 -- -- 61
2019-04-16 10:00:00 12.6 5 Norte 12 Norte 0 -- -- 72
2019-04-16 09:00:00 9.6 7 Norte 12 Norte 0 -- -- 89
2019-04-16 08:00:00 6.3 7 Norte 9 Norte 0 -- -- 93
2019-04-16 07:00:00 6.9 5 Nordeste 8 Nordeste 0 -- -- 89
2019-04-16 06:00:00 8.1 4 Noroeste 6 Noroeste 0 -- -- 87
2019-04-16 05:00:00 9.5 0 Calma 13 Nordeste 0 -- -- 86
2019-04-16 04:00:00 9.6 2 Nordeste 12 Noroeste 0 -- -- 87
2019-04-16 03:00:00 9.9 5 Noroeste 12 Norte 0 -- -- 86
2019-04-16 02:00:00 10.1 6 Noroeste 14 Noroeste 0 -- -- 91
2019-04-16 01:00:00 10.3 4 Norte 6 Este 0.2 -- -- 93
2019-04-16 00:00:00 10.5 4 Este 21 Norte 0.8 -- -- 91
2019-04-15 23:00:00 10.9 9 Norte 25 Norte 0 -- -- 86
2019-04-15 22:00:00 10.8 14 Norte 28 Noroeste 3 -- -- 88
2019-04-15 21:00:00 12.2 10 Noroeste 22 Norte 2.2 -- -- 89
2019-04-15 20:00:00 13.1 11 Norte 23 Nordeste 1.4 -- -- 90
2019-04-15 19:00:00 14.5 9 Norte 30 Este 3 -- -- 85
2019-04-15 18:00:00 18.6 21 Este 33 Sudeste 0.2 -- -- 65
2019-04-15 17:00:00 19.5 18 Este 44 Sudeste 0 -- -- 52
2019-04-15 16:00:00 20.6 26 Sudeste 42 Sudeste 0 -- -- 52
2019-04-15 15:00:00 19.8 26 Sudeste 46 Sudeste 0 -- -- 57
2019-04-15 14:00:00 18.7 26 Sudeste 43 Sudeste 0 -- -- 63
2019-04-15 13:00:00 17.6 25 Sudeste 38 Este 0 -- -- 65
2019-04-15 12:00:00 17.3 19 Este 33 Sudeste 0 -- -- 66
2019-04-15 11:00:00 14.7 17 Este 27 Sudeste 0 -- -- 76
2019-04-15 10:00:00 12.7 13 Este 23 Este 0 -- -- 82
2019-04-15 09:00:00 11.4 12 Este 17 Este 0 -- -- 89
2019-04-15 08:00:00 10 3 Sudeste 13 Este 0 -- -- 91
2019-04-15 07:00:00 9.5 3 Este 10 Norte 0 -- -- 91
2019-04-15 06:00:00 9.2 0 Calma 12 Noroeste 0 -- -- 91
2019-04-15 05:00:00 9.8 0 Calma 12 Norte 0 -- -- 91
2019-04-15 04:00:00 10.1 5 Norte 13 Noroeste 0 -- -- 90
2019-04-15 03:00:00 10.3 8 Norte 12 Norte 0 -- -- 90
2019-04-15 02:00:00 10.7 5 Nordeste 12 Norte 0 -- -- 88
2019-04-15 01:00:00 11.1 6 Norte 11 Norte 0 -- -- 87
2019-04-15 00:00:00 11.9 7 Norte 10 Norte 0 -- -- 84
2019-04-14 23:00:00 13 2 Norte 9 Sudeste 0 -- -- 79
2019-04-14 22:00:00 14.6 0 Calma 10 Nordeste 0 -- -- 70
2019-04-14 21:00:00 16.9 6 Este 15 Nordeste 0 -- -- 63
2019-04-14 20:00:00 19.5 6 Nordeste 20 Norte 0 -- -- 55
2019-04-14 19:00:00 21.4 9 Norte 25 Norte 0 -- -- 48
2019-04-14 18:00:00 22.7 10 Norte 30 Norte 0 -- -- 46
2019-04-14 17:00:00 24.2 14 Noroeste 30 Norte 0 -- -- 43
2019-04-14 16:00:00 25.4 17 Noroeste 29 Noroeste 0 -- -- 40
2019-04-14 15:00:00 24.8 15 Noroeste 29 Noroeste 0 -- -- 40
2019-04-14 14:00:00 23.7 15 Noroeste 33 Noroeste 0 -- -- 41
2019-04-14 13:00:00 22.9 18 Noroeste 31 Noroeste 0 -- -- 43
2019-04-14 12:00:00 20.2 9 Oeste 23 Noroeste 0 -- -- 44
2019-04-14 11:00:00 19.1 10 Noroeste 20 Noroeste 0 -- -- 40
2019-04-14 10:00:00 15.4 4 Sudeste 13 Noroeste 0 -- -- 56
2019-04-14 09:00:00 11 4 Noroeste 12 Norte 0 -- -- 63
2019-04-14 08:00:00 9.4 8 Norte 14 Norte 0 -- -- 62
2019-04-14 07:00:00 8.4 0 Calma 11 Norte 0 -- -- 68
2019-04-14 06:00:00 8.9 3 Norte 10 Nordeste 0 -- -- 60
2019-04-14 05:00:00 8.6 3 Norte 12 Noroeste 0 -- -- 61
2019-04-14 04:00:00 8.9 4 Norte 10 Norte 0 -- -- 60
2019-04-14 03:00:00 9.3 5 Norte 8 Norte 0 -- -- 56
2019-04-14 02:00:00 10.3 4 Noroeste 14 Norte 0 -- -- 54
2019-04-14 01:00:00 10.3 13 Noroeste 15 Noroeste 0 -- -- 52
2019-04-14 00:00:00 10.3 10 Norte 14 Norte 0 -- -- 48
2019-04-13 23:00:00 11.3 7 Noroeste 12 Noroeste 0 -- -- 44
2019-04-13 22:00:00 12.8 3 Noroeste 10 Noroeste 0 -- -- 38
2019-04-13 21:00:00 15.3 5 Noroeste 8 Noroeste 0 -- -- 31
2019-04-13 20:00:00 19.7 4 Norte 18 Noroeste 0 -- -- 22
2019-04-13 19:00:00 22.5 11 Noroeste 21 Noroeste 0 -- -- 19
2019-04-13 18:00:00 23.1 9 Noroeste 23 Noroeste 0 -- -- 12
2019-04-13 17:00:00 22.8 12 Oeste 23 Oeste 0 -- -- 14
2019-04-13 16:00:00 22.7 9 Sudoeste 19 Oeste 0 -- -- 14
2019-04-13 15:00:00 21.8 8 Sudoeste 22 Sur 0 -- -- 17
2019-04-13 14:00:00 20.3 11 Sudoeste 24 Sudoeste 0 -- -- 16
2019-04-13 13:00:00 19.5 8 Sudoeste 18 Sudoeste 0 -- -- 19
2019-04-13 12:00:00 17.3 6 Sur 13 Sudoeste 0 -- -- 26
2019-04-13 11:00:00 13.1 5 Sudoeste 9 Sudoeste 0 -- -- 40
2019-04-13 10:00:00 9.3 4 Sudoeste 7 Sudoeste 0 -- -- 43
2019-04-13 09:00:00 5 3 Sudoeste 9 Noroeste 0 -- -- 55
2019-04-13 08:00:00 1.3 2 Sur 14 Norte 0 -- -- 66
2019-04-13 07:00:00 1.8 13 Norte 18 Norte 0 -- -- 61
2019-04-13 06:00:00 2.2 16 Noroeste 20 Norte 0 -- -- 65
2019-04-13 05:00:00 2.4 15 Norte 18 Norte 0 -- -- 68
2019-04-13 04:00:00 2.9 12 Noroeste 20 Noroeste 0 -- -- 70
2019-04-13 03:00:00 2.9 13 Noroeste 16 Noroeste 0 -- -- 73
2019-04-13 02:00:00 3.7 10 Noroeste 18 Noroeste 0 -- -- 74
2019-04-13 01:00:00 4.9 13 Noroeste 17 Noroeste 0 -- -- 75
2019-04-13 00:00:00 5.8 5 Oeste 15 Norte 0 -- -- 71
2019-04-12 23:00:00 7.6 9 Noroeste 18 Norte 0 -- -- 66
2019-04-12 22:00:00 9.2 9 Noroeste 20 Noroeste 0 -- -- 57
2019-04-12 21:00:00 10.6 10 Noroeste 17 Noroeste 0 -- -- 57
2019-04-12 20:00:00 13.5 8 Norte 20 Norte 0 -- -- 43
2019-04-12 19:00:00 15.9 12 Norte 23 Norte 0 -- -- 36
2019-04-12 18:00:00 16.9 12 Norte 23 Nordeste 0 -- -- 36
2019-04-12 17:00:00 17.6 10 Norte 25 Norte 0 -- -- 39
2019-04-12 16:00:00 17.4 10 Norte 29 Norte 0 -- -- 42
2019-04-12 15:00:00 17 13 Norte 25 Norte 0 -- -- 40
2019-04-12 14:00:00 16.6 18 Noroeste 30 Norte 0 -- -- 46
2019-04-12 13:00:00 15.5 13 Norte 26 Norte 0 -- -- 47
2019-04-12 12:00:00 13.6 9 Norte 23 Noroeste 0 -- -- 53
2019-04-12 11:00:00 11.1 10 Noroeste 23 Oeste 0 -- -- 61
2019-04-12 10:00:00 10.1 11 Oeste 20 Oeste 0 -- -- 67
2019-04-12 09:00:00 8 10 Oeste 19 Noroeste 0 -- -- 76
2019-04-12 08:00:00 7 10 Oeste 20 Oeste 0 -- -- 80
2019-04-12 07:00:00 6.6 10 Noroeste 17 Oeste 0 -- -- 82
2019-04-12 06:00:00 6.4 9 Noroeste 28 Noroeste 0 -- -- 79
2019-04-12 05:00:00 7.8 16 Noroeste 28 Noroeste 0 -- -- 74
2019-04-12 04:00:00 7.9 14 Noroeste 26 Noroeste 0 -- -- 74
2019-04-12 03:00:00 7.5 9 Noroeste 29 Noroeste 0 -- -- 77
2019-04-12 02:00:00 6.7 9 Oeste 22 Noroeste 0 -- -- 78
2019-04-12 01:00:00 7.3 11 Noroeste 24 Oeste 0 -- -- 77
2019-04-12 00:00:00 6.6 12 Noroeste 21 Oeste 0 -- -- 80
2019-04-11 23:00:00 6.8 9 Noroeste 16 Oeste 0 -- -- 77
2019-04-11 22:00:00 8.1 7 Noroeste 22 Noroeste 0 -- -- 76
2019-04-11 21:00:00 9.2 12 Noroeste 26 Noroeste 0 -- -- 72
2019-04-11 20:00:00 9.9 9 Noroeste 22 Noroeste 0 -- -- 70
2019-04-11 19:00:00 10.4 13 Noroeste 28 Noroeste 0 -- -- 75
2019-04-11 18:00:00 11.4 13 Noroeste 27 Noroeste 0 -- -- 73
2019-04-11 17:00:00 11.7 13 Noroeste 26 Noroeste 0 -- -- 65
2019-04-11 16:00:00 12.7 15 Noroeste 35 Oeste 0 -- -- 63
2019-04-11 15:00:00 11.2 13 Oeste 30 Noroeste 0 -- -- 67
2019-04-11 14:00:00 11 13 Noroeste 27 Norte 0 -- -- 68
2019-04-11 13:00:00 10.7 15 Noroeste 26 Oeste 0 -- -- 66
2019-04-11 12:00:00 10.6 15 Noroeste 31 Oeste 0 -- -- 67
2019-04-11 11:00:00 9.9 14 Noroeste 24 Noroeste 0 -- -- 69
2019-04-11 10:00:00 9.6 11 Oeste 23 Oeste 0 -- -- 68
2019-04-11 09:00:00 7.9 11 Oeste 19 Noroeste 0 -- -- 75
2019-04-11 08:00:00 5.6 7 Oeste 13 Oeste 0 -- -- 86
2019-04-11 07:00:00 6.5 7 Oeste 19 Noroeste 0 -- -- 81
2019-04-11 06:00:00 6.7 10 Oeste 19 Oeste 0 -- -- 79
2019-04-11 05:00:00 6.9 4 Oeste 17 Oeste 0 -- -- 80
2019-04-11 04:00:00 6.1 9 Noroeste 15 Noroeste 0 -- -- 82
2019-04-11 03:00:00 7.4 8 Oeste 23 Noroeste 0 -- -- 77
2019-04-11 02:00:00 7.6 11 Oeste 23 Noroeste 0 -- -- 74
2019-04-11 01:00:00 7.1 9 Noroeste 22 Noroeste 0 -- -- 74
2019-04-11 00:00:00 5.9 9 Noroeste 19 Norte 0 -- -- 81
2019-04-10 23:00:00 7.3 5 Oeste 20 Noroeste 0 -- -- 77
2019-04-10 22:00:00 8.4 10 Noroeste 24 Noroeste 0 -- -- 77
2019-04-10 21:00:00 8.7 9 Noroeste 22 Noroeste 0 -- -- 74
2019-04-10 20:00:00 9.4 14 Noroeste 30 Noroeste 0 -- -- 68
2019-04-10 19:00:00 12.1 19 Noroeste 36 Noroeste 0 -- -- 58
2019-04-10 18:00:00 14.6 13 Norte 33 Noroeste 0 -- -- 51
2019-04-10 17:00:00 16.7 15 Noroeste 31 Noroeste 0 -- -- 48
2019-04-10 16:00:00 14.5 9 Norte 23 Norte 0 -- -- 52
2019-04-10 15:00:00 12.6 11 Norte 28 Noroeste 0 -- -- 62
2019-04-10 14:00:00 11.6 11 Noroeste 21 Noroeste 0 -- -- 67
2019-04-10 13:00:00 11.7 12 Noroeste 26 Norte 0 -- -- 65
2019-04-10 12:00:00 12.3 13 Noroeste 24 Oeste 0 -- -- 59
2019-04-10 11:00:00 12.1 13 Noroeste 23 Noroeste 0 -- -- 64
2019-04-10 10:00:00 9.5 5 Oeste 11 Oeste 0 -- -- 74
2019-04-10 09:00:00 7.5 4 Nordeste 12 Noroeste 0 -- -- 83
2019-04-10 08:00:00 5.3 7 Noroeste 14 Noroeste 0 -- -- 89
2019-04-10 07:00:00 5.7 10 Noroeste 15 Noroeste 0 -- -- 87
2019-04-10 06:00:00 5.6 10 Noroeste 19 Oeste 0 -- -- 91
2019-04-10 05:00:00 4.2 12 Noroeste 15 Noroeste 0 -- -- 92
2019-04-10 04:00:00 4.5 5 Norte 13 Noroeste 0 -- -- 94
2019-04-10 03:00:00 4.1 9 Norte 15 Norte 0 -- -- 93
2019-04-10 02:00:00 4.2 12 Norte 14 Norte 0 -- -- 93
2019-04-10 01:00:00 5 5 Noroeste 10 Oeste 0 -- -- 91
2019-04-10 00:00:00 6.5 4 Oeste 17 Oeste 0.4 -- -- 91
2019-04-09 23:00:00 7.3 2 Sudoeste 8 Sudoeste 0 -- -- 83
2019-04-09 22:00:00 7.3 9 Oeste 30 Noroeste 0 -- -- 82
2019-04-09 21:00:00 8.1 17 Noroeste 27 Noroeste 0.2 -- -- 84
2019-04-09 20:00:00 9.3 15 Noroeste 33 Noroeste 0.6 -- -- 82
2019-04-09 19:00:00 12.6 18 Noroeste 32 Noroeste 0 -- -- 61
2019-04-09 18:00:00 13.9 15 Oeste 32 Noroeste 0 -- -- 56
2019-04-09 17:00:00 15.5 14 Oeste 35 Noroeste 0 -- -- 51
2019-04-09 16:00:00 16.3 14 Oeste 28 Oeste 0 -- -- 45
2019-04-09 15:00:00 16.5 13 Oeste 27 Sudoeste 0 -- -- 47
2019-04-09 14:00:00 15.5 15 Oeste 30 Sudoeste 0 -- -- 51
2019-04-09 13:00:00 14.5 18 Oeste 32 Sudoeste 0 -- -- 54
2019-04-09 12:00:00 13.1 13 Oeste 26 Oeste 0 -- -- 59
2019-04-09 11:00:00 10.8 11 Oeste 28 Oeste 0 -- -- 66
2019-04-09 10:00:00 10 3 Sur 7 Oeste 0 -- -- 76
2019-04-09 09:00:00 7 0 Calma 8 Noroeste 0 -- -- 84
2019-04-09 08:00:00 3.8 3 Norte 17 Noroeste 0 -- -- 91
2019-04-09 07:00:00 4.5 10 Noroeste 17 Noroeste 0 -- -- 88
2019-04-09 06:00:00 4.6 8 Noroeste 16 Noroeste 0 -- -- 90
2019-04-09 05:00:00 4.6 7 Noroeste 19 Noroeste 0 -- -- 90
2019-04-09 04:00:00 5.2 15 Noroeste 24 Noroeste 0 -- -- 93
2019-04-09 03:00:00 5 3 Este 14 Noroeste 0 -- -- 93
2019-04-09 02:00:00 5.6 11 Noroeste 17 Noroeste 0 -- -- 94
2019-04-09 01:00:00 5.5 9 Norte 14 Noroeste 0 -- -- 94
2019-04-09 00:00:00 6.1 6 Noroeste 12 Norte 0 -- -- 92
2019-04-08 23:00:00 6.9 4 Oeste 9 Norte 0 -- -- 90
2019-04-08 22:00:00 7.7 4 Noroeste 14 Este 0 -- -- 87
2019-04-08 21:00:00 9.2 9 Nordeste 14 Nordeste 0 -- -- 86
2019-04-08 20:00:00 11.8 2 Sur 13 Este 1 -- -- 81
2019-04-08 19:00:00 14.4 10 Este 18 Este 0 -- -- 60
2019-04-08 18:00:00 15.5 6 Norte 17 Este 0 -- -- 59
2019-04-08 17:00:00 13.6 9 Norte 20 Norte 0 -- -- 66
2019-04-08 16:00:00 15.3 11 Nordeste 24 Nordeste 0 -- -- 66
2019-04-08 15:00:00 14 6 Norte 13 Norte 0 -- -- 71
2019-04-08 14:00:00 12 9 Norte 15 Norte 0 -- -- 83
2019-04-08 13:00:00 12.4 5 Sudeste 15 Este 0 -- -- 75
2019-04-08 12:00:00 10.1 8 Sudeste 17 Este 0 -- -- 85
2019-04-08 11:00:00 8.8 8 Este 17 Este 0 -- -- 89
2019-04-08 10:00:00 7.7 8 Este 14 Este 0.2 -- -- 92
2019-04-08 09:00:00 7.3 10 Este 15 Este 0 -- -- 92
2019-04-08 08:00:00 7.1 8 Este 15 Este 1 -- -- 92
2019-04-08 07:00:00 7.4 6 Nordeste 14 Este 0.2 -- -- 89
2019-04-08 06:00:00 7.3 7 Nordeste 11 Nordeste 0.2 -- -- 90
2019-04-08 05:00:00 7.6 6 Nordeste 10 Nordeste 0.4 -- -- 87
2019-04-08 04:00:00 8.1 6 Nordeste 12 Nordeste 0 -- -- 80
2019-04-08 03:00:00 8.1 4 Este 8 Nordeste 0 -- -- 80
2019-04-08 02:00:00 7.9 4 Noroeste 7 Noroeste 0 -- -- 81
2019-04-08 01:00:00 8.5 3 Sudoeste 5 Sudoeste 0 -- -- 74
2019-04-08 00:00:00 8.8 0 Calma 14 Oeste 0 -- -- 65
2019-04-07 23:00:00 9 2 Norte 6 Oeste 0 -- -- 63
2019-04-07 22:00:00 9.8 4 Noroeste 7 Sudoeste 0 -- -- 56
2019-04-07 21:00:00 10.7 4 Oeste 13 Oeste 0 -- -- 54
2019-04-07 20:00:00 12.8 6 Oeste 19 Oeste 0 -- -- 48
2019-04-07 19:00:00 14.3 9 Oeste 17 Oeste 0 -- -- 40
2019-04-07 18:00:00 14.1 5 Oeste 19 Oeste 0 -- -- 45
2019-04-07 17:00:00 14.4 7 Oeste 23 Sudoeste 0 -- -- 43
2019-04-07 16:00:00 14.1 6 Noroeste 33 Sudoeste 0 -- -- 48
2019-04-07 15:00:00 13.3 10 Noroeste 22 Oeste 0 -- -- 55
2019-04-07 14:00:00 12.3 12 Noroeste 22 Noroeste 0 -- -- 54
2019-04-07 13:00:00 10.7 9 Oeste 24 Noroeste 0 -- -- 61
2019-04-07 12:00:00 10.8 13 Oeste 28 Oeste 0 -- -- 64
2019-04-07 11:00:00 10.1 15 Noroeste 28 Oeste 0 -- -- 67
2019-04-07 10:00:00 7.8 8 Oeste 25 Oeste 0 -- -- 74
2019-04-07 09:00:00 5.9 6 Oeste 16 Oeste 0 -- -- 84
2019-04-07 08:00:00 4.3 7 Noroeste 12 Noroeste 0 -- -- 90
2019-04-07 07:00:00 4 6 Noroeste 14 Oeste 0 -- -- 89
2019-04-07 06:00:00 4.4 8 Noroeste 14 Oeste 0 -- -- 92
2019-04-07 05:00:00 5 6 Oeste 14 Oeste 0 -- -- 91
2019-04-07 04:00:00 4.7 5 Noroeste 11 Noroeste 0.8 -- -- 93
2019-04-07 03:00:00 5 6 Oeste 16 Noroeste 0.4 -- -- 92
2019-04-07 02:00:00 5.1 5 Noroeste 10 Oeste 0.2 -- -- 92
2019-04-07 01:00:00 5.2 5 Oeste 15 Sudoeste 0 -- -- 90
2019-04-07 00:00:00 4.9 0 Calma 14 Noroeste 0 -- -- 94
2019-04-06 23:00:00 4.6 9 Noroeste 13 Noroeste 0 -- -- 92
2019-04-06 22:00:00 5 6 Norte 9 Noroeste 0 -- -- 92
2019-04-06 21:00:00 5.2 8 Norte 40 Oeste 3.4 -- -- 88
2019-04-06 20:00:00 10.3 2 Sudeste 15 Oeste 0 -- -- 62
2019-04-06 19:00:00 11.1 6 Noroeste 20 Noroeste 0 -- -- 59
2019-04-06 18:00:00 11.5 9 Oeste 23 Oeste 0 -- -- 52
2019-04-06 17:00:00 11.7 14 Oeste 28 Oeste 0 -- -- 49
2019-04-06 16:00:00 12 15 Oeste 33 Oeste 0 -- -- 45
2019-04-06 15:00:00 12.3 18 Oeste 35 Oeste 0 -- -- 45
2019-04-06 14:00:00 12.7 17 Sudoeste 30 Sudoeste 0 -- -- 49
2019-04-06 13:00:00 11.7 11 Sudoeste 27 Oeste 0 -- -- 50
2019-04-06 12:00:00 12 10 Oeste 22 Sudoeste 0 -- -- 51
2019-04-06 11:00:00 9.9 8 Oeste 24 Oeste 0 -- -- 58
2019-04-06 10:00:00 8.3 12 Oeste 27 Oeste 0 -- -- 67
2019-04-06 09:00:00 5.3 5 Noroeste 14 Noroeste 0 -- -- 80
2019-04-06 08:00:00 3.1 8 Noroeste 19 Oeste 0 -- -- 87
2019-04-06 07:00:00 3.4 8 Noroeste 19 Noroeste 0 -- -- 86
2019-04-06 06:00:00 4.3 11 Noroeste 24 Noroeste 0 -- -- 84
2019-04-06 05:00:00 4 7 Noroeste 22 Noroeste 0 -- -- 88
2019-04-06 04:00:00 3.8 10 Noroeste 18 Noroeste 0 -- -- 92
2019-04-06 03:00:00 3.5 0 Calma 8 Norte 0 -- -- 95
2019-04-06 02:00:00 3.6 5 Noroeste 9 Noroeste 0 -- -- 95
2019-04-06 01:00:00 3.7 3 Oeste 8 Noroeste 0 -- -- 94
2019-04-06 00:00:00 4 5 Noroeste 8 Noroeste 0 -- -- 93
2019-04-05 23:00:00 4.4 5 Este 10 Noroeste 0 -- -- 92
2019-04-05 22:00:00 4.7 7 Noroeste 10 Norte 0 -- -- 92
2019-04-05 21:00:00 5.1 2 Este 13 Norte 0.2 -- -- 91
2019-04-05 20:00:00 5 10 Noroeste 24 Noroeste 0.2 -- -- 91
2019-04-05 19:00:00 5.7 9 Oeste 39 Oeste 1.6 -- -- 89
2019-04-05 18:00:00 10 9 Oeste 25 Noroeste 0 -- -- 71
2019-04-05 17:00:00 11.5 5 Sur 30 Sudeste 0 -- -- 62
2019-04-05 16:00:00 11 20 Sudeste 41 Sudeste 0 -- -- 60
2019-04-05 15:00:00 11 22 Sudeste 39 Sudeste 0 -- -- 62
2019-04-05 14:00:00 10.9 24 Sudeste 36 Este 0 -- -- 67
2019-04-05 13:00:00 9.2 20 Sudeste 36 Sudeste 0 -- -- 71
2019-04-05 12:00:00 8.6 21 Sudeste 36 Sudeste 0 -- -- 71
2019-04-05 11:00:00 8.5 24 Sudeste 38 Sudeste 0 -- -- 70
2019-04-05 10:00:00 7.7 18 Este 33 Sudeste 0 -- -- 72
2019-04-05 09:00:00 7.4 22 Sudeste 33 Este 0 -- -- 67
2019-04-05 08:00:00 7 16 Sudeste 34 Este 0 -- -- 65
2019-04-05 07:00:00 7 22 Sudeste 37 Sudeste 0 -- -- 62
2019-04-05 06:00:00 7.4 22 Sudeste 34 Sudeste 0 -- -- 57
2019-04-05 05:00:00 7.7 17 Sudeste 31 Sudeste 0 -- -- 53
2019-04-05 04:00:00 7.9 11 Sudeste 32 Sudeste 0 -- -- 50
2019-04-05 03:00:00 8.3 15 Sudeste 24 Sudeste 0 -- -- 47
2019-04-05 02:00:00 9.2 8 Sudeste 21 Sudeste 0 -- -- 51
2019-04-05 01:00:00 9.7 4 Sudeste 21 Oeste 0 -- -- 48
2019-04-05 00:00:00 9.3 0 Calma 18 Este 0 -- -- 49
2019-04-04 23:00:00 9.9 9 Este 24 Sudeste 0 -- -- 48
2019-04-04 22:00:00 9.5 11 Este 22 Este 0 -- -- 50
2019-04-04 21:00:00 9.9 12 Este 17 Este 0 -- -- 51
2019-04-04 20:00:00 11.5 7 Este 20 Sudeste 0 -- -- 45
2019-04-04 19:00:00 12.9 10 Sudeste 24 Sudeste 0 -- -- 40
2019-04-04 18:00:00 14.2 14 Sudeste 25 Sudeste 0 -- -- 36
2019-04-04 17:00:00 14.6 6 Sudeste 25 Sudeste 0 -- -- 33
2019-04-04 16:00:00 14.3 11 Oeste 26 Oeste 0 -- -- 33
2019-04-04 15:00:00 12.9 9 Sudoeste 33 Sudoeste 0 -- -- 34
2019-04-04 14:00:00 10.8 12 Oeste 25 Sudoeste 0 -- -- 39
2019-04-04 13:00:00 9.1 10 Oeste 27 Oeste 0 -- -- 43
2019-04-04 12:00:00 9.3 13 Sudoeste 26 Oeste 0 -- -- 46
2019-04-04 11:00:00 8 13 Oeste 26 Sudoeste 0 -- -- 50
2019-04-04 10:00:00 6.7 12 Oeste 24 Noroeste 0 -- -- 52
2019-04-04 09:00:00 3.7 6 Oeste 14 Oeste 0 -- -- 64
2019-04-04 08:00:00 1.8 7 Oeste 27 Oeste 0 -- -- 71
2019-04-04 07:00:00 2.4 15 Oeste 26 Noroeste 0 -- -- 69
2019-04-04 06:00:00 1.6 6 Oeste 23 Noroeste 0 -- -- 73
2019-04-04 05:00:00 1.9 13 Noroeste 25 Noroeste 0 -- -- 73
2019-04-04 04:00:00 1.5 14 Noroeste 22 Noroeste 0 -- -- 77
2019-04-04 03:00:00 2.3 16 Noroeste 25 Noroeste 0 -- -- 75
2019-04-04 02:00:00 2.1 14 Noroeste 27 Oeste 0 -- -- 80
2019-04-04 01:00:00 2.3 13 Noroeste 25 Noroeste 0 -- -- 79
2019-04-04 00:00:00 2.9 12 Noroeste 21 Noroeste 0 -- -- 74
2019-04-03 23:00:00 3.6 13 Noroeste 24 Oeste 0 -- -- 67
2019-04-03 22:00:00 4.4 16 Noroeste 30 Noroeste 0 -- -- 61
2019-04-03 21:00:00 5.4 10 Oeste 25 Oeste 0 -- -- 56
2019-04-03 20:00:00 6.2 13 Noroeste 34 Oeste 0 -- -- 51
2019-04-03 19:00:00 9.3 19 Noroeste 41 Oeste 0 -- -- 46
2019-04-03 18:00:00 10 19 Noroeste 37 Oeste 0 -- -- 48
2019-04-03 17:00:00 9.5 14 Noroeste 40 Noroeste 0 -- -- 51
2019-04-03 16:00:00 9.2 15 Noroeste 38 Noroeste 0 -- -- 60
2019-04-03 15:00:00 11.8 9 Noroeste 40 Noroeste 0 -- -- 53
2019-04-03 14:00:00 9.1 26 Noroeste 46 Noroeste 0 -- -- 63
2019-04-03 13:00:00 10.4 18 Noroeste 30 Noroeste 0.2 -- -- 62
2019-04-03 12:00:00 6.6 6 Oeste 26 Noroeste 0 -- -- 79
2019-04-03 11:00:00 6.6 10 Noroeste 22 Norte 0 -- -- 83
2019-04-03 10:00:00 6.6 6 Noroeste 12 Oeste 0 -- -- 84
2019-04-03 09:00:00 6.3 3 Sudoeste 6 Oeste 0.2 -- -- 89
2019-04-03 08:00:00 6.4 0 Calma 12 Noroeste 0.2 -- -- 87
2019-04-03 07:00:00 7.3 5 Noroeste 17 Noroeste 0 -- -- 77
2019-04-03 06:00:00 7.6 3 Noroeste 19 Noroeste 0 -- -- 76
2019-04-03 05:00:00 8 9 Noroeste 19 Norte 0 -- -- 76
2019-04-03 04:00:00 8.1 5 Norte 15 Noroeste 0 -- -- 78
2019-04-03 03:00:00 8.1 6 Noroeste 25 Oeste 0 -- -- 81
2019-04-03 02:00:00 8.7 13 Noroeste 23 Noroeste 0 -- -- 80
2019-04-03 01:00:00 9.3 11 Noroeste 23 Noroeste 0 -- -- 76
2019-04-03 00:00:00 10.3 8 Noroeste 18 Noroeste 0 -- -- 71
2019-04-02 23:00:00 10.1 9 Noroeste 21 Noroeste 0 -- -- 71
2019-04-02 22:00:00 10.4 7 Noroeste 23 Nordeste 0 -- -- 69
2019-04-02 21:00:00 10.6 12 Norte 31 Norte 0 -- -- 71
2019-04-02 20:00:00 13.1 13 Norte 27 Norte 0 -- -- 62
2019-04-02 19:00:00 15.9 9 Norte 23 Nordeste 0 -- -- 51
2019-04-02 18:00:00 18.1 10 Noroeste 21 Noroeste 0 -- -- 38
2019-04-02 17:00:00 19.1 11 Norte 22 Norte 0 -- -- 37
2019-04-02 16:00:00 19.2 9 Norte 21 Oeste 0 -- -- 36
2019-04-02 15:00:00 19 9 Norte 23 Norte 0 -- -- 36
2019-04-02 14:00:00 18.5 7 Norte 23 Noroeste 0 -- -- 43
2019-04-02 13:00:00 16.8 7 Sudeste 22 Noroeste 0 -- -- 46
2019-04-02 12:00:00 15.1 6 Sudoeste 12 Sudoeste 0 -- -- 57
2019-04-02 11:00:00 12 4 Sudoeste 13 Sudeste 0 -- -- 77
2019-04-02 10:00:00 9.4 3 Oeste 7 Sudoeste 0 -- -- 88
2019-04-02 09:00:00 6.2 3 Este 7 Oeste 0 -- -- 96
2019-04-02 08:00:00 5.1 4 Noroeste 9 Norte 0 -- -- 96
2019-04-02 07:00:00 5.3 2 Noroeste 12 Norte 0 -- -- 96
2019-04-02 06:00:00 4.6 5 Noroeste 8 Noroeste 0 -- -- 95
2019-04-02 05:00:00 5.4 0 Calma 13 Noroeste 0 -- -- 94
2019-04-02 04:00:00 5.7 2 Este 14 Noroeste 0 -- -- 94
2019-04-02 03:00:00 6.3 3 Norte 12 Noroeste 0 -- -- 94
2019-04-02 02:00:00 6.4 2 Norte 13 Norte 0 -- -- 93
2019-04-02 01:00:00 7.3 2 Nordeste 13 Norte 0 -- -- 92
2019-04-02 00:00:00 7.8 10 Norte 12 Norte 0 -- -- 90
2019-04-01 23:00:00 8.8 7 Norte 9 Norte 0 -- -- 87
2019-04-01 22:00:00 10.3 2 Este 9 Sudeste 0 -- -- 82
2019-04-01 21:00:00 11.9 5 Nordeste 11 Este 0 -- -- 76
2019-04-01 20:00:00 14 8 Este 12 Sudeste 0 -- -- 68
2019-04-01 19:00:00 14.4 6 Sudeste 13 Este 0 -- -- 67
2019-04-01 18:00:00 13.9 8 Este 20 Este 0 -- -- 69
2019-04-01 17:00:00 13.6 9 Este 21 Este 0 -- -- 70
2019-04-01 16:00:00 13 14 Este 23 Este 0 -- -- 75
2019-04-01 15:00:00 12.8 13 Este 26 Este 0 -- -- 76
2019-04-01 14:00:00 12.5 14 Este 23 Este 0 -- -- 77
2019-04-01 13:00:00 11.7 13 Este 25 Este 0 -- -- 81
2019-04-01 12:00:00 10.2 12 Este 20 Este 0 -- -- 85
2019-04-01 11:00:00 9.1 13 Este 18 Este 0 -- -- 90
2019-04-01 10:00:00 8.3 11 Este 16 Este 0 -- -- 93
2019-04-01 09:00:00 7.8 3 Sudeste 12 Este 0 -- -- 96
2019-04-01 08:00:00 7.4 5 Este 10 Este 0 -- -- 95
2019-04-01 07:00:00 7.5 2 Este 6 Noroeste 0 -- -- 95
2019-04-01 06:00:00 7.5 3 Oeste 4 Oeste 0 -- -- 94
2019-04-01 05:00:00 7.6 4 Este 11 Nordeste 0.2 -- -- 92
2019-04-01 04:00:00 7.6 7 Nordeste 13 Este 0.2 -- -- 92
2019-04-01 03:00:00 7.6 9 Norte 10 Norte 0 -- -- 92
2019-04-01 02:00:00 7.9 8 Noroeste 10 Noroeste 0.8 -- -- 89
2019-04-01 01:00:00 8.5 2 Este 13 Sudoeste 0.6 -- -- 84
2019-04-01 00:00:00 9.9 3 Sur 8 Sudeste 0 -- -- 67
2019-03-31 23:00:00 10.3 8 Sudeste 20 Este 0 -- -- 62
2019-03-31 22:00:00 10.9 13 Este 20 Este 0 -- -- 59
2019-03-31 21:00:00 11.8 7 Este 17 Sudeste 0 -- -- 62
2019-03-31 20:00:00 12.8 9 Sudeste 20 Sudeste 0 -- -- 56
2019-03-31 19:00:00 14 12 Sudeste 21 Sudeste 0 -- -- 54
2019-03-31 18:00:00 14.9 15 Sudeste 29 Sudeste 0 -- -- 48
2019-03-31 17:00:00 16.4 15 Sudeste 24 Sudeste 0 -- -- 49
2019-03-31 16:00:00 16.4 13 Sudeste 22 Este 0 -- -- 50
2019-03-31 15:00:00 15.8 12 Este 21 Este 0 -- -- 52
2019-03-31 14:00:00 14.9 10 Este 23 Este 0 -- -- 55
2019-03-31 13:00:00 13.6 8 Sudeste 18 Este 0 -- -- 59
2019-03-31 12:00:00 12.3 10 Este 17 Este 0 -- -- 64
2019-03-31 11:00:00 10.8 9 Sudeste 17 Este 0 -- -- 70
2019-03-31 10:00:00 9 10 Este 13 Sudeste 0 -- -- 79
2019-03-31 09:00:00 6.5 8 Nordeste 15 Nordeste 0 -- -- 86
2019-03-31 08:00:00 4.8 6 Nordeste 13 Nordeste 0 -- -- 88
2019-03-31 07:00:00 4.7 8 Nordeste 11 Nordeste 0 -- -- 85
2019-03-31 06:00:00 4.6 6 Nordeste 10 Norte 0 -- -- 80
2019-03-31 05:00:00 5.6 5 Nordeste 12 Este 0 -- -- 71
2019-03-31 03:00:00 8.1 5 Sudeste 19 Nordeste 0 -- -- 60
2019-03-31 01:00:00 9.6 13 Este 19 Este 0 -- -- 54
2019-03-31 00:00:00 9.9 11 Este 21 Este 0 -- -- 53
2019-03-30 23:00:00 11 10 Este 18 Este 0 -- -- 49
2019-03-30 22:00:00 11.5 9 Este 12 Nordeste 0 -- -- 46
2019-03-30 21:00:00 12 7 Este 10 Este 0 -- -- 45
2019-03-30 20:00:00 12.6 6 Este 10 Sudeste 0 -- -- 39
2019-03-30 19:00:00 15.4 8 Sudeste 21 Sudeste 0 -- -- 38
2019-03-30 18:00:00 17.9 12 Sudeste 26 Sudeste 0 -- -- 34
2019-03-30 17:00:00 19 14 Sudeste 31 Sudeste 0 -- -- 33
2019-03-30 16:00:00 18.7 16 Este 31 Este 0 -- -- 35
2019-03-30 15:00:00 18.4 18 Este 36 Este 0 -- -- 40
2019-03-30 14:00:00 17.2 17 Este 33 Este 0 -- -- 41
2019-03-30 13:00:00 15.7 17 Este 30 Este 0 -- -- 47
2019-03-30 12:00:00 13.7 14 Este 28 Este 0 -- -- 53
2019-03-30 11:00:00 11.8 12 Este 24 Este 0 -- -- 59
2019-03-30 10:00:00 10.2 14 Este 22 Este 0 -- -- 63
2019-03-30 09:00:00 8.9 12 Este 25 Este 0 -- -- 67
2019-03-30 08:00:00 6.3 9 Este 14 Este 0 -- -- 72
2019-03-30 07:00:00 4.7 9 Este 16 Este 0 -- -- 76
2019-03-30 06:00:00 5.3 10 Este 18 Este 0 -- -- 72
2019-03-30 05:00:00 6 10 Este 23 Este 0 -- -- 68
2019-03-30 04:00:00 7 15 Este 24 Este 0 -- -- 63
2019-03-30 03:00:00 7.7 17 Este 28 Este 0 -- -- 62
2019-03-30 02:00:00 8.5 13 Este 23 Este 0 -- -- 61
2019-03-30 01:00:00 9.4 15 Este 23 Este 0 -- -- 59
2019-03-30 00:00:00 9.9 14 Este 22 Este 0 -- -- 58
2019-03-29 23:00:00 11.2 13 Este 24 Este 0 -- -- 54
2019-03-29 22:00:00 11.3 15 Este 26 Este 0 -- -- 51
2019-03-29 21:00:00 11.7 14 Este 23 Este 0 -- -- 48
2019-03-29 20:00:00 13.4 17 Este 27 Este 0 -- -- 43
2019-03-29 19:00:00 16.4 15 Sudeste 31 Sudeste 0 -- -- 34
2019-03-29 18:00:00 18.3 18 Sudeste 36 Sudeste 0 -- -- 31
2019-03-29 17:00:00 19.3 20 Sudeste 35 Sudeste 0 -- -- 29
2019-03-29 16:00:00 19.5 20 Sudeste 37 Sudeste 0 -- -- 29
2019-03-29 15:00:00 19.2 21 Sudeste 37 Este 0 -- -- 32
2019-03-29 14:00:00 18.1 21 Este 33 Este 0 -- -- 36
2019-03-29 13:00:00 16.5 17 Este 28 Este 0 -- -- 42
2019-03-29 12:00:00 14.2 19 Este 28 Este 0 -- -- 46
2019-03-29 11:00:00 12.2 15 Este 26 Este 0 -- -- 52
2019-03-29 10:00:00 10.7 14 Este 25 Este 0 -- -- 56
2019-03-29 09:00:00 8.2 11 Este 17 Este 0 -- -- 64
2019-03-29 08:00:00 6.3 7 Este 16 Este 0 -- -- 68
2019-03-29 07:00:00 4.8 12 Este 19 Este 0 -- -- 71
2019-03-29 06:00:00 2.9 8 Nordeste 12 Nordeste 0 -- -- 84
2019-03-29 05:00:00 2.4 5 Norte 9 Norte 0 -- -- 82
2019-03-29 04:00:00 3.4 7 Norte 12 Norte 0 -- -- 79
2019-03-29 03:00:00 3.9 6 Norte 14 Norte 0 -- -- 78
2019-03-29 02:00:00 4.6 12 Norte 15 Norte 0 -- -- 74
2019-03-29 01:00:00 5.3 8 Noroeste 9 Oeste 0 -- -- 70
2019-03-29 00:00:00 6.7 4 Oeste 13 Noroeste 0 -- -- 63
2019-03-28 23:00:00 8.6 8 Noroeste 18 Norte 0 -- -- 56
2019-03-28 22:00:00 9.3 8 Noroeste 21 Norte 0 -- -- 52
2019-03-28 21:00:00 10.2 9 Norte 28 Norte 0 -- -- 48
2019-03-28 20:00:00 11.7 14 Norte 26 Norte 0 -- -- 45
2019-03-28 19:00:00 14.2 14 Norte 24 Norte 0 -- -- 43
2019-03-28 18:00:00 17.3 13 Norte 26 Norte 0 -- -- 39
2019-03-28 17:00:00 19.2 12 Norte 23 Norte 0 -- -- 36
2019-03-28 16:00:00 20.1 10 Norte 24 Norte 0 -- -- 35
2019-03-28 15:00:00 19.3 10 Norte 25 Norte 0 -- -- 35
2019-03-28 14:00:00 18.2 7 Norte 24 Norte 0 -- -- 38
2019-03-28 13:00:00 17.4 7 Norte 19 Norte 0 -- -- 39
2019-03-28 12:00:00 16.2 8 Noroeste 19 Oeste 0 -- -- 43
2019-03-28 11:00:00 15.1 8 Norte 22 Norte 0 -- -- 46
2019-03-28 10:00:00 13.3 8 Norte 20 Noroeste 0 -- -- 52
2019-03-28 09:00:00 10 6 Noroeste 12 Oeste 0 -- -- 63
2019-03-28 08:00:00 6.1 9 Oeste 17 Noroeste 0 -- -- 82
2019-03-28 07:00:00 3.5 7 Noroeste 18 Noroeste 0 -- -- 88
2019-03-28 06:00:00 3.4 9 Noroeste 14 Oeste 0 -- -- 88
2019-03-28 05:00:00 4.1 12 Noroeste 20 Noroeste 0 -- -- 85
2019-03-28 04:00:00 4 9 Noroeste 19 Noroeste 0 -- -- 84
2019-03-28 03:00:00 4.7 11 Noroeste 22 Oeste 0 -- -- 80
2019-03-28 02:00:00 5.8 8 Oeste 22 Noroeste 0 -- -- 75
2019-03-28 01:00:00 5.3 6 Oeste 30 Noroeste 0 -- -- 73
2019-03-28 00:00:00 5.8 13 Oeste 30 Oeste 0 -- -- 72
2019-03-27 23:00:00 6 8 Noroeste 16 Noroeste 0 -- -- 65
2019-03-27 22:00:00 7.4 8 Oeste 23 Noroeste 0 -- -- 56
2019-03-27 21:00:00 8.4 12 Noroeste 20 Noroeste 0 -- -- 47
2019-03-27 20:00:00 9.7 8 Noroeste 26 Norte 0 -- -- 39
2019-03-27 19:00:00 12.6 9 Noroeste 27 Norte 0 -- -- 29
2019-03-27 18:00:00 15.2 18 Norte 36 Norte 0 -- -- 26
2019-03-27 17:00:00 18.2 13 Noroeste 29 Noroeste 0 -- -- 24
2019-03-27 16:00:00 19.1 16 Noroeste 31 Norte 0 -- -- 23
2019-03-27 15:00:00 19.4 15 Norte 32 Norte 0 -- -- 24
2019-03-27 14:00:00 19.3 11 Norte 28 Norte 0 -- -- 23
2019-03-27 13:00:00 18.2 14 Norte 30 Noroeste 0 -- -- 24
2019-03-27 12:00:00 17.1 13 Norte 30 Noroeste 0 -- -- 24
2019-03-27 11:00:00 16.1 16 Norte 29 Norte 0 -- -- 29
2019-03-27 10:00:00 14 10 Noroeste 25 Oeste 0 -- -- 32
2019-03-27 09:00:00 8.6 5 Sudoeste 11 Oeste 0 -- -- 56
2019-03-27 08:00:00 4.7 3 Oeste 12 Noroeste 0 -- -- 60
2019-03-27 07:00:00 2.1 4 Oeste 10 Noroeste 0 -- -- 71
2019-03-27 06:00:00 1.9 6 Oeste 10 Noroeste 0 -- -- 76
2019-03-27 05:00:00 2.5 6 Noroeste 13 Norte 0 -- -- 74
2019-03-27 04:00:00 3.1 8 Oeste 15 Oeste 0 -- -- 73
2019-03-27 03:00:00 3.5 10 Noroeste 14 Oeste 0 -- -- 71
2019-03-27 02:00:00 4.7 12 Noroeste 18 Oeste 0 -- -- 69
2019-03-27 01:00:00 5.6 8 Oeste 26 Oeste 0 -- -- 59
2019-03-27 00:00:00 7.1 6 Oeste 23 Nordeste 0 -- -- 57